createdAt,value
2022-11-20T00:02:12.914Z,71.44
2022-11-20T00:04:42.984Z,70.82
2022-11-20T00:07:12.653Z,71.11
2022-11-20T00:09:40.068Z,71.38
2022-11-20T00:12:07.877Z,71.23
2022-11-20T00:14:37.949Z,71.48
2022-11-20T00:17:05.936Z,71.50
2022-11-20T00:19:36.010Z,71.11
2022-11-20T00:22:03.652Z,71.23
2022-11-20T00:24:42.837Z,71.30
2022-11-20T00:27:14.308Z,71.58
2022-11-20T00:29:44.467Z,71.56
2022-11-20T00:32:11.667Z,71.77
2022-11-20T00:34:38.598Z,71.67
2022-11-20T00:37:05.854Z,71.91
2022-11-20T00:39:43.843Z,71.39
2022-11-20T00:42:11.729Z,71.91
2022-11-20T00:44:39.257Z,71.99
2022-11-20T00:47:07.207Z,71.85
2022-11-20T00:49:34.216Z,71.39
2022-11-20T00:52:01.010Z,71.88
2022-11-20T00:54:27.919Z,71.56
2022-11-20T00:56:56.175Z,71.52
2022-11-20T00:59:23.419Z,71.99
2022-11-20T01:01:51.558Z,71.40
2022-11-20T01:04:19.987Z,72.17
2022-11-20T01:06:46.800Z,72.23
2022-11-20T01:09:15.503Z,71.85
2022-11-20T01:11:44.611Z,71.71
2022-11-20T01:14:14.697Z,71.83
2022-11-20T01:16:44.159Z,72.07
2022-11-20T01:19:17.482Z,72.07
2022-11-20T01:21:53.838Z,71.39
2022-11-20T01:24:22.826Z,72.13
2022-11-20T01:26:51.781Z,71.93
2022-11-20T01:29:23.132Z,71.38
2022-11-20T01:31:51.076Z,71.94
2022-11-20T01:34:20.681Z,71.70
2022-11-20T01:36:48.502Z,71.77
2022-11-20T01:39:17.821Z,71.75
2022-11-20T01:42:09.693Z,72.29
2022-11-20T01:44:55.175Z,72.06
2022-11-20T01:47:28.124Z,72.06
2022-11-20T01:49:59.571Z,71.96
2022-11-20T01:52:31.694Z,71.87
2022-11-20T01:55:05.140Z,72.44
2022-11-20T01:57:35.218Z,72.10
2022-11-20T02:00:07.323Z,72.01
2022-11-20T02:06:20.653Z,71.82
2022-11-20T02:08:47.331Z,71.59
2022-11-20T02:11:14.103Z,71.88
2022-11-20T02:13:44.366Z,72.15
2022-11-20T02:16:23.197Z,72.22
2022-11-20T02:18:51.569Z,71.91
2022-11-20T02:21:31.343Z,71.80
2022-11-20T02:24:16.225Z,72.39
2022-11-20T02:26:50.354Z,72.23
2022-11-20T02:29:20.686Z,72.15
2022-11-20T02:31:48.692Z,72.23
2022-11-20T02:34:15.710Z,72.95
2022-11-20T02:36:43.955Z,72.33
2022-11-20T02:39:14.503Z,72.50
2022-11-20T02:41:41.304Z,72.53
2022-11-20T02:44:09.471Z,72.11
2022-11-20T02:46:36.854Z,72.80
2022-11-20T02:49:04.720Z,72.34
2022-11-20T02:51:36.044Z,72.06
2022-11-20T02:54:07.002Z,72.38
2022-11-20T02:56:35.387Z,72.16
2022-11-20T02:59:03.676Z,72.52
2022-11-20T03:01:31.108Z,72.42
2022-11-20T03:04:02.843Z,73.11
2022-11-20T03:06:30.043Z,72.87
2022-11-20T03:08:57.455Z,72.46
2022-11-20T03:11:24.985Z,72.24
2022-11-20T03:13:53.738Z,72.37
2022-11-20T03:16:23.345Z,72.74
2022-11-20T03:19:02.486Z,72.13
2022-11-20T03:21:29.796Z,72.53
2022-11-20T03:24:01.547Z,72.35
2022-11-20T03:26:29.813Z,72.85
2022-11-20T03:29:00.612Z,72.34
2022-11-20T03:31:30.485Z,72.48
2022-11-20T03:34:01.726Z,72.34
2022-11-20T03:36:30.795Z,72.99
2022-11-20T03:38:59.154Z,72.86
2022-11-20T03:41:28.000Z,72.77
2022-11-20T03:44:00.114Z,72.88
2022-11-20T03:46:27.557Z,72.30
2022-11-20T03:48:54.550Z,72.48
2022-11-20T03:51:23.613Z,72.67
2022-11-20T03:53:51.968Z,72.50
2022-11-20T03:56:22.803Z,71.98
2022-11-20T03:58:49.800Z,72.80
2022-11-20T04:01:19.489Z,72.36
2022-11-20T04:03:47.223Z,72.86
2022-11-20T04:06:16.029Z,72.80
2022-11-20T04:08:43.326Z,72.57
2022-11-20T04:11:15.865Z,72.50
2022-11-20T04:13:43.650Z,72.43
2022-11-20T04:16:10.949Z,72.77
2022-11-20T04:18:39.509Z,72.37
2022-11-20T04:21:06.644Z,72.53
2022-11-20T04:23:34.139Z,72.42
2022-11-20T04:26:06.982Z,73.02
2022-11-20T04:28:33.900Z,72.97
2022-11-20T04:31:08.748Z,72.70
2022-11-20T04:33:36.233Z,73.08
2022-11-20T04:36:06.414Z,72.56
2022-11-20T04:38:38.313Z,72.66
2022-11-20T04:41:06.997Z,72.61
2022-11-20T04:43:34.331Z,72.87
2022-11-20T04:46:02.154Z,72.84
2022-11-20T04:48:35.832Z,72.64
2022-11-20T04:51:05.594Z,72.68
2022-11-20T04:53:33.159Z,72.59
2022-11-20T04:56:04.995Z,73.01
2022-11-20T04:58:31.814Z,72.56
2022-11-20T05:01:03.526Z,72.74
2022-11-20T05:03:30.485Z,72.50
2022-11-20T05:05:57.893Z,72.57
2022-11-20T05:08:25.992Z,72.93
2022-11-20T05:10:52.642Z,72.68
2022-11-20T05:13:19.348Z,73.07
2022-11-20T05:15:46.293Z,73.14
2022-11-20T05:18:13.057Z,72.38
2022-11-20T05:20:40.030Z,72.98
2022-11-20T05:23:06.762Z,72.91
2022-11-20T05:25:34.806Z,72.66
2022-11-20T05:28:01.534Z,72.89
2022-11-20T05:30:29.608Z,72.66
2022-11-20T05:32:56.312Z,72.60
2022-11-20T05:35:23.029Z,72.47
2022-11-20T05:37:50.065Z,73.08
2022-11-20T05:40:16.995Z,73.08
2022-11-20T05:42:45.073Z,72.77
2022-11-20T05:45:11.949Z,72.40
2022-11-20T05:47:38.606Z,72.64
2022-11-20T05:50:08.597Z,72.63
2022-11-20T05:52:35.355Z,72.73
2022-11-20T05:55:02.552Z,72.72
2022-11-20T05:57:29.225Z,73.16
2022-11-20T05:59:57.296Z,73.10
2022-11-20T06:02:24.098Z,73.00
2022-11-20T06:04:51.924Z,72.98
2022-11-20T06:07:21.077Z,72.66
2022-11-20T06:09:47.785Z,72.91
2022-11-20T06:12:15.678Z,72.71
2022-11-20T06:14:42.430Z,72.57
2022-11-20T06:17:10.521Z,72.60
2022-11-20T06:19:37.303Z,72.73
2022-11-20T06:22:04.035Z,72.59
2022-11-20T06:24:31.766Z,72.41
2022-11-20T06:26:58.544Z,72.65
2022-11-20T06:29:26.807Z,72.73
2022-11-20T06:31:57.845Z,72.48
2022-11-20T06:34:25.967Z,72.90
2022-11-20T06:36:54.070Z,73.20
2022-11-20T06:39:22.672Z,72.81
2022-11-20T06:41:52.230Z,73.05
2022-11-20T06:44:21.330Z,73.21
2022-11-20T06:46:48.030Z,73.19
2022-11-20T06:49:14.968Z,72.51
2022-11-20T06:51:43.370Z,72.84
2022-11-20T06:54:10.130Z,73.37
2022-11-20T06:56:37.944Z,73.21
2022-11-20T06:59:06.335Z,72.99
2022-11-20T07:01:33.389Z,72.82
2022-11-20T07:04:00.299Z,73.01
2022-11-20T07:06:27.013Z,72.80
2022-11-20T07:08:55.049Z,72.96
2022-11-20T07:11:22.057Z,73.21
2022-11-20T07:13:48.778Z,72.99
2022-11-20T07:16:15.545Z,73.21
2022-11-20T07:18:47.314Z,73.36
2022-11-20T07:21:18.149Z,72.96
2022-11-20T07:23:46.872Z,73.62
2022-11-20T07:26:15.000Z,73.35
2022-11-20T07:28:45.214Z,73.39
2022-11-20T07:31:18.824Z,73.02
2022-11-20T07:33:48.684Z,73.13
2022-11-20T07:36:15.508Z,73.24
2022-11-20T07:38:42.417Z,73.65
2022-11-20T07:41:09.361Z,73.26
2022-11-20T07:43:41.182Z,73.32
2022-11-20T07:46:08.374Z,73.01
2022-11-20T07:48:35.855Z,73.66
2022-11-20T07:51:04.180Z,73.25
2022-11-20T07:53:32.354Z,73.22
2022-11-20T07:56:01.936Z,73.67
2022-11-20T07:58:31.244Z,73.73
2022-11-20T08:01:05.394Z,73.68
2022-11-20T08:03:32.447Z,72.86
2022-11-20T08:06:02.220Z,73.92
2022-11-20T08:08:33.424Z,73.16
2022-11-20T08:11:19.167Z,73.37
2022-11-20T08:14:04.369Z,74.08
2022-11-20T08:16:34.010Z,74.12
2022-11-20T08:19:06.370Z,73.89
2022-11-20T08:21:38.030Z,74.17
2022-11-20T08:24:07.098Z,73.83
2022-11-20T08:26:35.026Z,73.99
2022-11-20T08:29:01.946Z,74.19
2022-11-20T08:31:29.072Z,74.12
2022-11-20T08:33:57.385Z,74.39
2022-11-20T08:36:24.665Z,74.61
2022-11-20T08:38:52.625Z,74.32
2022-11-20T08:41:28.744Z,75.12
2022-11-20T08:43:58.279Z,74.59
2022-11-20T08:46:27.082Z,74.47
2022-11-20T08:48:54.735Z,74.88
2022-11-20T08:51:22.854Z,74.77
2022-11-20T08:53:49.745Z,74.32
2022-11-20T08:56:19.259Z,74.83
2022-11-20T08:59:17.960Z,74.41
2022-11-20T09:01:32.986Z,74.43
2022-11-20T09:04:00.744Z,74.24
2022-11-20T09:06:31.345Z,74.18
2022-11-20T09:09:02.030Z,74.43
2022-11-20T09:11:34.456Z,74.64
2022-11-20T09:14:02.166Z,74.37
2022-11-20T09:16:28.875Z,74.52
2022-11-20T09:19:13.471Z,74.42
2022-11-20T09:21:45.303Z,74.58
2022-11-20T09:24:12.566Z,74.50
2022-11-20T09:26:39.431Z,73.91
2022-11-20T09:29:06.870Z,74.74
2022-11-20T09:31:34.651Z,74.86
2022-11-20T09:34:04.298Z,74.45
2022-11-20T09:36:31.475Z,74.59
2022-11-20T09:39:00.804Z,74.85
2022-11-20T09:41:49.507Z,74.97
2022-11-20T09:44:33.024Z,74.96
2022-11-20T09:47:05.228Z,75.12
2022-11-20T09:49:47.223Z,74.87
2022-11-20T09:52:23.480Z,75.10
2022-11-20T09:54:52.623Z,74.60
2022-11-20T09:57:21.525Z,74.52
2022-11-20T09:59:54.221Z,74.63
2022-11-20T10:02:31.132Z,74.91
2022-11-20T10:05:03.406Z,75.16
2022-11-20T10:07:38.775Z,75.35
2022-11-20T10:10:16.339Z,75.42
2022-11-20T10:13:04.970Z,75.76
2022-11-20T10:15:40.670Z,75.70
2022-11-20T10:18:21.331Z,75.70
2022-11-20T10:20:57.453Z,75.19
2022-11-20T10:23:53.814Z,74.97
2022-11-20T10:26:34.686Z,74.88
2022-11-20T10:29:10.959Z,75.10
2022-11-20T10:31:40.319Z,75.70
2022-11-20T10:34:22.268Z,75.46
2022-11-20T10:36:57.385Z,75.63
2022-11-20T10:39:33.453Z,75.59
2022-11-20T10:42:02.394Z,75.08
2022-11-20T10:44:51.265Z,75.05
2022-11-20T10:47:23.716Z,75.65
2022-11-20T10:49:54.081Z,75.60
2022-11-20T10:52:27.181Z,75.69
2022-11-20T10:55:00.533Z,75.31
2022-11-20T10:57:48.197Z,75.07
2022-11-20T11:00:17.888Z,75.58
2022-11-20T11:02:48.706Z,75.92
2022-11-20T11:05:25.523Z,75.39
2022-11-20T11:07:55.586Z,75.90
2022-11-20T11:10:26.987Z,75.33
2022-11-20T11:12:55.224Z,75.86
2022-11-20T11:15:30.187Z,75.73
2022-11-20T11:17:57.607Z,75.82
2022-11-20T11:20:26.433Z,75.97
2022-11-20T11:22:56.674Z,75.90
2022-11-20T11:25:27.832Z,75.72
2022-11-20T11:27:59.916Z,76.03
2022-11-20T11:30:36.076Z,75.87
2022-11-20T11:33:10.260Z,76.02
2022-11-20T11:35:50.881Z,76.17
2022-11-20T11:38:22.739Z,75.94
2022-11-20T11:40:49.522Z,76.04
2022-11-20T11:45:07.633Z,76.03
2022-11-20T11:47:45.109Z,76.33
2022-11-20T11:50:18.842Z,76.17
2022-11-20T11:52:51.639Z,76.42
2022-11-20T11:55:29.158Z,76.50
2022-11-20T11:58:00.894Z,75.94
2022-11-20T12:00:28.946Z,76.31
2022-11-20T12:03:06.484Z,76.31
2022-11-20T12:05:40.525Z,76.42
2022-11-20T12:08:16.196Z,76.45
2022-11-20T12:10:49.455Z,76.50
2022-11-20T12:13:27.923Z,76.79
2022-11-20T12:15:56.170Z,76.97
2022-11-20T12:18:24.150Z,76.73
2022-11-20T12:21:04.908Z,76.88
2022-11-20T12:23:45.195Z,76.79
2022-11-20T12:26:27.740Z,77.18
2022-11-20T12:29:10.626Z,77.13
2022-11-20T12:31:56.067Z,76.79
2022-11-20T12:34:41.652Z,77.22
2022-11-20T12:37:17.250Z,77.48
2022-11-20T12:39:50.014Z,77.80
2022-11-20T12:43:01.980Z,77.15
2022-11-20T12:46:01.829Z,77.28
2022-11-20T12:48:46.395Z,77.05
2022-11-20T12:51:33.159Z,77.17
2022-11-20T12:54:19.475Z,76.97
2022-11-20T12:56:53.878Z,77.69
2022-11-20T12:59:43.421Z,77.34
2022-11-20T13:02:24.267Z,77.30
2022-11-20T13:05:09.225Z,77.64
2022-11-20T13:07:37.740Z,77.62
2022-11-20T13:10:12.701Z,77.38
2022-11-20T13:12:46.511Z,77.40
2022-11-20T13:15:24.297Z,77.35
2022-11-20T13:17:57.460Z,77.77
2022-11-20T13:20:25.675Z,77.76
2022-11-20T13:22:55.622Z,77.87
2022-11-20T13:25:29.484Z,77.94
2022-11-20T13:27:58.499Z,78.22
2022-11-20T13:30:26.206Z,78.06
2022-11-20T13:32:57.818Z,78.39
2022-11-20T13:35:29.527Z,78.48
2022-11-20T13:38:05.904Z,79.09
2022-11-20T13:40:33.314Z,79.14
2022-11-20T13:43:11.738Z,78.98
2022-11-20T13:45:38.382Z,79.08
2022-11-20T13:48:22.878Z,78.86
2022-11-20T13:51:07.946Z,79.42
2022-11-20T13:53:49.237Z,78.95
2022-11-20T13:56:25.128Z,79.52
2022-11-20T13:59:05.179Z,79.53
2022-11-20T14:01:33.209Z,79.33
2022-11-20T14:04:07.595Z,79.22
2022-11-20T14:06:42.244Z,79.09
2022-11-20T14:09:14.038Z,79.64
2022-11-20T14:11:49.188Z,79.77
2022-11-20T14:14:18.426Z,79.58
2022-11-20T14:16:48.520Z,79.97
2022-11-20T14:19:31.540Z,79.88
2022-11-20T14:22:12.758Z,79.79
2022-11-20T14:24:39.452Z,79.62
2022-11-20T14:27:06.950Z,80.22
2022-11-20T14:29:37.259Z,80.28
2022-11-20T14:32:07.371Z,80.13
2022-11-20T14:34:41.430Z,80.29
2022-11-20T14:37:16.831Z,80.31
2022-11-20T14:39:50.398Z,80.38
2022-11-20T14:42:18.754Z,80.04
2022-11-20T14:44:46.384Z,80.32
2022-11-20T14:47:16.361Z,80.42
2022-11-20T14:49:43.693Z,80.21
2022-11-20T14:52:18.803Z,80.29
2022-11-20T14:54:47.138Z,80.19
2022-11-20T14:57:26.533Z,80.23
2022-11-20T15:00:05.862Z,80.22
2022-11-20T15:02:33.303Z,80.72
2022-11-20T15:05:04.206Z,80.72
2022-11-20T15:07:35.498Z,81.01
2022-11-20T15:10:04.572Z,81.04
2022-11-20T15:12:32.874Z,81.14
2022-11-20T15:15:01.540Z,81.33
2022-11-20T15:17:28.475Z,81.44
2022-11-20T15:19:55.743Z,81.55
2022-11-20T15:22:22.361Z,81.59
2022-11-20T15:24:50.389Z,81.90
2022-11-20T15:27:17.252Z,81.82
2022-11-20T15:29:45.342Z,81.63
2022-11-20T15:32:13.649Z,82.10
2022-11-20T15:34:40.675Z,81.67
2022-11-20T15:37:07.406Z,81.62
2022-11-20T15:39:34.006Z,81.79
2022-11-20T15:42:02.082Z,82.13
2022-11-20T15:44:28.771Z,82.21
2022-11-20T15:46:55.605Z,81.91
2022-11-20T15:49:24.330Z,82.22
2022-11-20T15:51:51.495Z,82.12
2022-11-20T15:54:21.419Z,81.72
2022-11-20T15:56:51.034Z,81.94
2022-11-20T15:59:19.344Z,81.78
2022-11-20T16:01:46.156Z,82.03
2022-11-20T16:04:14.371Z,82.21
2022-11-20T16:06:41.222Z,82.50
2022-11-20T16:09:08.420Z,82.59
2022-11-20T16:11:38.448Z,82.57
2022-11-20T16:14:24.568Z,82.56
2022-11-20T16:16:52.973Z,82.51
2022-11-20T16:19:19.675Z,82.28
2022-11-20T16:21:46.688Z,82.50
2022-11-20T16:24:15.345Z,82.85
2022-11-20T16:26:42.072Z,82.42
2022-11-20T16:29:09.346Z,82.49
2022-11-20T16:31:36.412Z,82.66
2022-11-20T16:34:11.899Z,82.55
2022-11-20T16:36:44.475Z,82.91
2022-11-20T16:39:12.113Z,82.91
2022-11-20T16:41:39.000Z,82.92
2022-11-20T16:44:10.703Z,82.97
2022-11-20T16:46:37.586Z,82.90
2022-11-20T16:49:07.037Z,82.98
2022-11-20T16:51:35.954Z,82.78
2022-11-20T16:54:03.573Z,83.24
2022-11-20T16:56:30.192Z,83.02
2022-11-20T16:58:58.960Z,83.17
2022-11-20T17:01:28.384Z,83.14
2022-11-20T17:03:57.110Z,82.96
2022-11-20T17:06:27.422Z,83.27
2022-11-20T17:08:55.105Z,83.21
2022-11-20T17:11:22.350Z,82.96
2022-11-20T17:13:49.926Z,82.88
2022-11-20T17:16:18.691Z,83.02
2022-11-20T17:18:46.088Z,83.33
2022-11-20T17:21:13.385Z,83.06
2022-11-20T17:23:43.669Z,82.91
2022-11-20T17:26:17.789Z,83.33
2022-11-20T17:28:47.622Z,83.33
2022-11-20T17:31:16.673Z,83.06
2022-11-20T17:33:45.253Z,83.18
2022-11-20T17:36:13.592Z,82.93
2022-11-20T17:38:41.814Z,83.14
2022-11-20T17:41:10.703Z,82.81
2022-11-20T17:43:38.673Z,82.77
2022-11-20T17:46:09.898Z,83.15
2022-11-20T17:48:37.325Z,83.31
2022-11-20T17:51:06.205Z,83.50
2022-11-20T17:53:34.619Z,83.54
2022-11-20T17:56:22.102Z,83.61
2022-11-20T17:58:48.792Z,83.66
2022-11-20T18:01:15.935Z,83.38
2022-11-20T18:03:42.850Z,83.57
2022-11-20T18:06:11.463Z,83.51
2022-11-20T18:08:39.170Z,83.92
2022-11-20T18:11:15.599Z,83.80
2022-11-20T18:14:09.680Z,83.46
2022-11-20T18:16:38.803Z,83.79
2022-11-20T18:19:05.471Z,83.71
2022-11-20T18:21:38.046Z,83.71
2022-11-20T18:24:05.305Z,83.84
2022-11-20T18:26:33.230Z,83.60
2022-11-20T18:29:04.592Z,83.74
2022-11-20T18:31:33.979Z,83.77
2022-11-20T18:34:00.704Z,83.91
2022-11-20T18:36:29.390Z,84.09
2022-11-20T18:38:59.948Z,83.62
2022-11-20T18:41:48.096Z,83.81
2022-11-20T18:44:36.925Z,83.65
2022-11-20T18:47:08.357Z,83.67
2022-11-20T18:49:40.801Z,83.72
2022-11-20T18:52:07.524Z,83.93
2022-11-20T18:54:35.520Z,84.04
2022-11-20T18:57:03.133Z,83.62
2022-11-20T18:59:31.668Z,83.60
2022-11-20T19:01:58.788Z,83.78
2022-11-20T19:04:25.844Z,83.94
2022-11-20T19:06:56.079Z,83.66
2022-11-20T19:09:24.194Z,84.01
2022-11-20T19:11:51.328Z,84.05
2022-11-20T19:14:18.294Z,84.00
2022-11-20T19:16:47.924Z,84.09
2022-11-20T19:19:16.065Z,84.20
2022-11-20T19:21:43.271Z,83.84
2022-11-20T19:24:10.132Z,84.04
2022-11-20T19:26:37.604Z,84.25
2022-11-20T19:29:07.292Z,84.14
2022-11-20T19:31:35.165Z,84.47
2022-11-20T19:34:04.487Z,84.36
2022-11-20T19:36:33.637Z,84.85
2022-11-20T19:39:02.818Z,84.63
2022-11-20T19:41:31.484Z,84.80
2022-11-20T19:43:59.343Z,84.50
2022-11-20T19:46:27.144Z,84.14
2022-11-20T19:48:54.193Z,84.74
2022-11-20T19:51:24.013Z,84.45
2022-11-20T19:53:50.838Z,84.52
2022-11-20T19:56:17.705Z,84.42
2022-11-20T19:58:44.571Z,84.55
2022-11-20T20:01:13.257Z,84.89
2022-11-20T20:03:40.898Z,85.07
2022-11-20T20:06:10.094Z,84.57
2022-11-20T20:08:38.269Z,84.77
2022-11-20T20:11:11.232Z,84.82
2022-11-20T20:13:38.088Z,84.75
2022-11-20T20:16:07.095Z,84.41
2022-11-20T20:18:34.113Z,84.48
2022-11-20T20:21:03.896Z,84.67
2022-11-20T20:23:30.891Z,84.46
2022-11-20T20:26:00.906Z,84.52
2022-11-20T20:28:28.452Z,84.39
2022-11-20T20:30:55.413Z,84.48
2022-11-20T20:33:23.165Z,84.05
2022-11-20T20:35:49.869Z,84.36
2022-11-20T20:38:16.708Z,84.15
2022-11-20T20:40:47.891Z,84.23
2022-11-20T20:43:15.995Z,84.32
2022-11-20T20:52:40.729Z,75.66
2022-11-20T20:55:08.102Z,64.54
2022-11-20T20:57:34.813Z,59.08
2022-11-20T21:00:01.922Z,55.79
2022-11-20T21:02:28.517Z,54.42
2022-11-20T21:04:55.368Z,53.10
2022-11-20T21:07:22.077Z,71.91
2022-11-20T21:09:50.192Z,52.29
2022-11-20T21:14:37.297Z,50.39
2022-11-20T21:26:11.299Z,48.79
2022-11-20T21:28:38.264Z,52.57
2022-11-20T21:31:06.873Z,55.66
2022-11-20T21:33:38.338Z,58.15
2022-11-20T21:36:05.667Z,60.28
2022-11-20T21:38:36.069Z,61.85
2022-11-20T21:41:04.817Z,64.00
2022-11-20T21:43:33.050Z,65.06
2022-11-20T21:46:03.538Z,65.61
2022-11-20T21:48:31.477Z,66.01
2022-11-20T21:51:05.493Z,66.81
2022-11-20T21:53:34.603Z,67.02
2022-11-20T21:56:01.703Z,67.24
2022-11-20T21:58:28.664Z,67.58
2022-11-20T22:00:58.057Z,68.08
2022-11-20T22:03:24.801Z,68.34
2022-11-20T22:05:57.052Z,68.47
2022-11-20T22:08:24.542Z,68.69
2022-11-20T22:10:55.301Z,68.91
2022-11-20T22:13:41.020Z,69.05
2022-11-20T22:16:09.362Z,69.25
2022-11-20T22:18:36.393Z,69.01
2022-11-20T22:21:07.258Z,69.33
2022-11-20T22:23:34.834Z,69.67
2022-11-20T22:26:03.135Z,69.73
2022-11-20T22:28:29.971Z,69.93
2022-11-20T22:30:58.913Z,70.25
2022-11-20T22:33:27.844Z,70.34
2022-11-20T22:36:00.088Z,70.12
2022-11-20T22:38:29.617Z,70.63
2022-11-20T22:41:02.979Z,70.90
2022-11-20T22:43:30.266Z,70.65
2022-11-20T22:46:03.385Z,71.06
2022-11-20T22:48:31.705Z,71.27
2022-11-20T22:51:06.016Z,71.43
2022-11-20T22:53:33.107Z,71.39
2022-11-20T22:56:00.211Z,72.08
2022-11-20T22:58:29.129Z,71.87
2022-11-20T23:00:56.127Z,72.21
2022-11-20T23:03:23.814Z,72.37
2022-11-20T23:05:52.026Z,72.78
2022-11-20T23:08:18.608Z,72.47
2022-11-20T23:10:45.291Z,72.67
2022-11-20T23:13:12.009Z,72.75
2022-11-20T23:15:38.716Z,73.09
2022-11-20T23:18:05.497Z,72.83
2022-11-20T23:20:32.149Z,72.95
2022-11-20T23:23:00.194Z,73.28
2022-11-20T23:25:27.099Z,72.93
2022-11-20T23:27:54.449Z,73.44
2022-11-20T23:30:21.481Z,73.06
2022-11-20T23:32:50.679Z,73.00
2022-11-20T23:35:17.349Z,73.22
2022-11-20T23:37:43.953Z,73.28
2022-11-20T23:40:13.182Z,73.67
2022-11-20T23:42:59.828Z,73.61
2022-11-20T23:45:26.488Z,73.28
2022-11-20T23:47:54.150Z,73.73
2022-11-20T23:50:21.005Z,73.65
2022-11-20T23:52:47.732Z,74.05
2022-11-20T23:55:15.758Z,73.93
2022-11-20T23:57:42.409Z,74.05
